createdAt,value
2022-11-18T00:01:22.944Z,8.37
2022-11-18T00:03:52.297Z,9.03
2022-11-18T00:06:23.259Z,8.96
2022-11-18T00:08:52.874Z,8.87
2022-11-18T00:11:44.912Z,8.34
2022-11-18T00:14:21.438Z,7.82
2022-11-18T00:16:58.705Z,7.68
2022-11-18T00:19:37.944Z,8.57
2022-11-18T00:22:07.933Z,8.21
2022-11-18T00:24:36.404Z,8.41
2022-11-18T00:27:04.723Z,7.37
2022-11-18T00:29:32.762Z,6.63
2022-11-18T00:32:01.235Z,6.60
2022-11-18T00:34:29.343Z,6.91
2022-11-18T00:36:57.384Z,7.48
2022-11-18T00:39:26.396Z,7.97
2022-11-18T00:42:13.064Z,8.10
2022-11-18T00:44:41.474Z,7.26
2022-11-18T00:47:09.473Z,7.68
2022-11-18T00:49:37.492Z,6.72
2022-11-18T00:52:06.697Z,6.05
2022-11-18T00:54:34.698Z,6.23
2022-11-18T00:57:04.398Z,6.43
2022-11-18T00:59:32.866Z,6.93
2022-11-18T01:02:00.885Z,6.66
2022-11-18T01:04:28.984Z,6.54
2022-11-18T01:06:57.548Z,7.02
2022-11-18T01:09:25.682Z,6.70
2022-11-18T01:12:12.474Z,6.39
2022-11-18T01:14:40.814Z,6.38
2022-11-18T01:17:09.163Z,6.54
2022-11-18T01:19:37.149Z,6.78
2022-11-18T01:22:05.873Z,7.62
2022-11-18T01:24:34.745Z,7.70
2022-11-18T01:27:02.991Z,6.53
2022-11-18T01:29:31.324Z,6.74
2022-11-18T01:32:23.301Z,7.11
2022-11-18T01:34:47.885Z,7.09
2022-11-18T01:37:16.024Z,8.05
2022-11-18T01:39:44.112Z,7.40
2022-11-18T01:42:15.868Z,7.00
2022-11-18T01:44:58.724Z,7.68
2022-11-18T01:47:33.466Z,6.88
2022-11-18T01:50:02.342Z,7.64
2022-11-18T01:52:31.666Z,7.10
2022-11-18T01:55:04.575Z,6.55
2022-11-18T01:57:33.381Z,7.06
2022-11-18T02:00:03.993Z,7.64
2022-11-18T02:02:34.393Z,6.69
2022-11-18T02:05:05.015Z,6.68
2022-11-18T02:07:36.084Z,7.08
2022-11-18T02:10:06.364Z,6.69
2022-11-18T02:12:35.963Z,7.06
2022-11-18T02:15:04.455Z,7.01
2022-11-18T02:17:48.329Z,7.13
2022-11-18T02:20:29.174Z,6.57
2022-11-18T02:23:36.745Z,6.88
2022-11-18T02:26:19.493Z,7.50
2022-11-18T02:29:12.152Z,7.46
2022-11-18T02:31:47.624Z,7.02
2022-11-18T02:34:38.953Z,7.29
2022-11-18T02:37:16.315Z,7.45
2022-11-18T02:40:20.092Z,7.65
2022-11-18T02:42:52.844Z,7.67
2022-11-18T02:45:21.852Z,7.45
2022-11-18T02:47:51.254Z,7.33
2022-11-18T02:50:24.087Z,7.67
2022-11-18T02:52:56.605Z,7.31
2022-11-18T02:55:26.365Z,7.11
2022-11-18T02:57:54.994Z,7.51
2022-11-18T03:00:23.021Z,7.76
2022-11-18T03:02:51.504Z,7.54
2022-11-18T03:05:26.204Z,7.90
2022-11-18T03:07:58.257Z,8.37
2022-11-18T03:10:33.063Z,8.29
2022-11-18T03:13:11.004Z,8.04
2022-11-18T03:15:56.045Z,7.98
2022-11-18T03:18:38.460Z,7.95
2022-11-18T03:21:10.033Z,8.51
2022-11-18T03:23:43.517Z,8.34
2022-11-18T03:26:11.806Z,9.06
2022-11-18T03:28:43.622Z,8.56
2022-11-18T03:31:39.035Z,8.07
2022-11-18T03:34:14.738Z,8.06
2022-11-18T03:36:51.611Z,8.20
2022-11-18T03:39:21.284Z,8.08
2022-11-18T03:41:56.464Z,7.96
2022-11-18T03:44:28.354Z,8.45
2022-11-18T03:47:00.586Z,8.05
2022-11-18T03:49:36.146Z,8.21
2022-11-18T03:52:19.385Z,8.21
2022-11-18T03:54:49.277Z,8.31
2022-11-18T03:57:26.205Z,8.61
2022-11-18T04:00:14.195Z,8.68
2022-11-18T04:02:42.806Z,8.56
2022-11-18T04:05:13.216Z,9.10
2022-11-18T04:07:59.519Z,8.98
2022-11-18T04:10:33.874Z,8.68
2022-11-18T04:13:12.345Z,8.34
2022-11-18T04:15:42.316Z,8.14
2022-11-18T04:18:11.445Z,8.47
2022-11-18T04:20:39.722Z,8.53
2022-11-18T04:23:08.493Z,8.96
2022-11-18T04:25:36.665Z,8.68
2022-11-18T04:28:05.013Z,8.77
2022-11-18T04:30:33.864Z,8.60
2022-11-18T04:33:02.102Z,8.68
2022-11-18T04:35:30.144Z,8.70
2022-11-18T04:37:58.684Z,8.87
2022-11-18T04:40:26.645Z,9.15
2022-11-18T04:42:54.654Z,9.49
2022-11-18T04:45:23.083Z,8.98
2022-11-18T04:47:51.135Z,8.76
2022-11-18T04:50:19.175Z,8.60
2022-11-18T04:52:47.555Z,8.77
2022-11-18T04:55:15.657Z,8.61
2022-11-18T04:57:43.663Z,8.30
2022-11-18T05:00:13.123Z,8.07
2022-11-18T05:02:41.155Z,8.15
2022-11-18T05:05:09.191Z,8.56
2022-11-18T05:07:37.535Z,8.81
2022-11-18T05:10:06.213Z,9.33
2022-11-18T05:12:49.285Z,8.84
2022-11-18T05:15:19.233Z,8.72
2022-11-18T05:17:47.729Z,8.92
2022-11-18T05:20:16.476Z,9.51
2022-11-18T05:22:44.837Z,8.83
2022-11-18T05:25:12.897Z,8.64
2022-11-18T05:27:40.883Z,8.49
2022-11-18T05:30:09.885Z,8.84
2022-11-18T05:32:38.013Z,8.63
2022-11-18T05:35:06.515Z,8.79
2022-11-18T05:37:34.884Z,8.85
2022-11-18T05:40:03.001Z,8.63
2022-11-18T05:42:49.283Z,8.85
2022-11-18T05:45:19.662Z,9.26
2022-11-18T05:48:04.939Z,9.13
2022-11-18T05:50:35.683Z,8.74
2022-11-18T05:53:04.702Z,8.85
2022-11-18T05:55:44.963Z,8.94
2022-11-18T05:58:13.194Z,9.19
2022-11-18T06:00:41.436Z,9.14
2022-11-18T06:03:16.470Z,9.04
2022-11-18T06:05:44.781Z,9.11
2022-11-18T06:08:18.016Z,9.26
2022-11-18T06:10:47.516Z,9.27
2022-11-18T06:13:21.693Z,9.11
2022-11-18T06:15:49.969Z,8.80
2022-11-18T06:18:30.704Z,9.14
2022-11-18T06:21:02.087Z,9.14
2022-11-18T06:23:35.244Z,9.23
2022-11-18T06:26:03.675Z,9.15
2022-11-18T06:28:34.085Z,9.28
2022-11-18T06:31:02.266Z,9.46
2022-11-18T06:33:30.288Z,9.59
2022-11-18T06:35:58.713Z,9.41
2022-11-18T06:38:26.699Z,9.56
2022-11-18T06:40:58.555Z,9.39
2022-11-18T06:43:42.157Z,9.60
2022-11-18T06:46:36.162Z,9.62
2022-11-18T06:49:04.615Z,9.88
2022-11-18T06:51:32.685Z,9.26
2022-11-18T06:54:01.413Z,9.67
2022-11-18T06:56:31.943Z,9.43
2022-11-18T06:58:59.995Z,9.48
2022-11-18T07:01:30.514Z,9.64
2022-11-18T07:04:00.212Z,9.52
2022-11-18T07:06:30.505Z,9.46
2022-11-18T07:09:01.406Z,9.64
2022-11-18T07:11:29.705Z,9.27
2022-11-18T07:13:57.704Z,9.53
2022-11-18T07:16:27.411Z,9.81
2022-11-18T07:18:56.443Z,9.40
2022-11-18T07:21:27.104Z,9.51
2022-11-18T07:23:56.477Z,9.79
2022-11-18T07:26:24.628Z,9.58
2022-11-18T07:28:54.128Z,9.74
2022-11-18T07:31:22.608Z,9.63
2022-11-18T07:33:53.765Z,9.38
2022-11-18T07:36:24.421Z,9.21
2022-11-18T07:38:52.995Z,9.25
2022-11-18T07:41:23.245Z,9.48
2022-11-18T07:43:56.162Z,9.41
2022-11-18T07:46:30.180Z,9.28
2022-11-18T07:49:00.376Z,9.62
2022-11-18T07:51:30.905Z,9.56
2022-11-18T07:53:59.085Z,9.37
2022-11-18T07:56:27.443Z,9.46
2022-11-18T07:58:56.481Z,9.24
2022-11-18T08:01:29.253Z,9.38
2022-11-18T08:03:58.926Z,9.64
2022-11-18T08:06:26.993Z,9.46
2022-11-18T08:08:55.047Z,9.49
2022-11-18T08:11:23.426Z,9.55
2022-11-18T08:13:54.235Z,9.41
2022-11-18T08:16:24.626Z,9.34
2022-11-18T08:18:53.463Z,9.17
2022-11-18T08:21:23.244Z,9.13
2022-11-18T08:23:56.426Z,9.25
2022-11-18T08:26:25.961Z,9.28
2022-11-18T08:28:54.591Z,9.21
2022-11-18T08:31:25.936Z,9.46
2022-11-18T08:33:58.033Z,9.17
2022-11-18T08:36:28.545Z,9.61
2022-11-18T08:38:58.404Z,9.67
2022-11-18T08:41:36.546Z,9.77
2022-11-18T08:44:06.124Z,9.70
2022-11-18T08:46:34.631Z,9.59
2022-11-18T08:49:02.786Z,9.64
2022-11-18T08:51:31.328Z,9.61
2022-11-18T08:53:59.601Z,9.80
2022-11-18T08:56:27.919Z,9.97
2022-11-18T08:58:56.506Z,10.03
2022-11-18T09:01:24.868Z,10.02
2022-11-18T09:03:52.986Z,9.97
2022-11-18T09:06:23.173Z,9.97
2022-11-18T09:08:51.494Z,10.12
2022-11-18T09:11:21.861Z,9.95
2022-11-18T09:16:44.775Z,9.66
2022-11-18T09:22:02.802Z,9.99
2022-11-18T09:24:31.411Z,9.72
2022-11-18T09:27:03.477Z,9.62
2022-11-18T09:29:32.675Z,9.85
2022-11-18T09:32:03.737Z,9.67
2022-11-18T09:34:34.755Z,9.77
2022-11-18T09:37:07.525Z,9.36
2022-11-18T09:39:37.802Z,9.71
2022-11-18T09:42:17.995Z,9.80
2022-11-18T09:44:49.391Z,9.70
2022-11-18T09:47:26.652Z,9.57
2022-11-18T09:49:57.623Z,9.87
2022-11-18T09:52:35.995Z,9.60
2022-11-18T09:55:15.655Z,9.64
2022-11-18T09:57:53.097Z,9.75
2022-11-18T10:00:25.509Z,9.84
2022-11-18T10:03:10.354Z,9.63
2022-11-18T10:05:41.327Z,9.86
2022-11-18T10:08:19.004Z,9.60
2022-11-18T10:11:01.224Z,9.66
2022-11-18T10:13:46.358Z,9.45
2022-11-18T10:16:27.115Z,9.59
2022-11-18T10:19:36.010Z,9.44
2022-11-18T10:22:24.641Z,9.51
2022-11-18T10:24:57.885Z,9.55
2022-11-18T10:27:35.086Z,9.55
2022-11-18T10:30:13.704Z,9.15
2022-11-18T10:32:58.139Z,9.34
2022-11-18T10:35:32.446Z,9.63
2022-11-18T10:38:16.137Z,9.70
2022-11-18T10:40:47.545Z,9.75
2022-11-18T10:43:49.255Z,9.58
2022-11-18T10:46:32.283Z,9.64
2022-11-18T10:49:09.527Z,9.53
2022-11-18T10:51:39.957Z,9.22
2022-11-18T10:54:22.924Z,9.02
2022-11-18T10:59:54.734Z,9.16
2022-11-18T11:01:48.003Z,9.79
2022-11-18T11:02:40.223Z,9.06
2022-11-18T11:05:20.525Z,9.27
2022-11-18T11:08:21.549Z,9.30
2022-11-18T11:10:56.324Z,8.87
2022-11-18T11:13:28.125Z,9.14
2022-11-18T11:15:59.753Z,8.88
2022-11-18T11:18:43.127Z,8.95
2022-11-18T11:21:18.042Z,8.68
2022-11-18T11:23:47.383Z,8.50
2022-11-18T11:29:28.506Z,9.11
2022-11-18T11:32:01.076Z,9.23
2022-11-18T11:34:29.492Z,8.97
2022-11-18T11:37:05.163Z,9.27
2022-11-18T11:39:53.678Z,9.85
2022-11-18T11:42:43.045Z,9.67
2022-11-18T11:45:21.526Z,9.11
2022-11-18T11:48:18.612Z,8.92
2022-11-18T11:51:03.425Z,8.91
2022-11-18T11:53:48.669Z,9.52
2022-11-18T11:56:40.853Z,9.45
2022-11-18T11:59:30.727Z,9.93
2022-11-18T12:02:32.643Z,9.49
2022-11-18T12:05:27.295Z,9.28
2022-11-18T12:08:18.237Z,8.99
2022-11-18T12:11:26.767Z,9.13
2022-11-18T12:14:11.355Z,9.02
2022-11-18T12:16:46.174Z,9.43
2022-11-18T12:19:16.564Z,9.18
2022-11-18T12:21:45.894Z,9.48
2022-11-18T12:24:20.764Z,9.58
2022-11-18T12:26:50.440Z,9.66
2022-11-18T12:29:21.507Z,9.94
2022-11-18T12:31:57.160Z,9.82
2022-11-18T12:34:28.381Z,10.08
2022-11-18T12:36:57.360Z,9.54
2022-11-18T12:39:25.617Z,9.55
2022-11-18T12:42:16.396Z,9.49
2022-11-18T12:44:49.844Z,9.16
2022-11-18T12:47:41.145Z,9.40
2022-11-18T12:50:15.309Z,9.51
2022-11-18T12:52:43.336Z,9.32
2022-11-18T12:55:41.047Z,8.90
2022-11-18T12:58:23.294Z,9.13
2022-11-18T13:00:54.786Z,9.01
2022-11-18T13:03:25.295Z,9.42
2022-11-18T13:06:00.823Z,9.10
2022-11-18T13:08:29.471Z,9.33
2022-11-18T13:11:33.401Z,9.10
2022-11-18T13:14:21.339Z,8.96
2022-11-18T13:17:25.496Z,9.06
2022-11-18T13:19:59.717Z,9.15
2022-11-18T13:22:46.746Z,8.82
2022-11-18T13:25:25.425Z,9.18
2022-11-18T13:28:23.873Z,9.06
2022-11-18T13:30:57.530Z,9.10
2022-11-18T13:33:26.155Z,9.08
2022-11-18T13:35:54.280Z,9.19
2022-11-18T13:38:28.162Z,9.39
2022-11-18T13:41:08.475Z,9.41
2022-11-18T13:43:37.116Z,9.65
2022-11-18T13:46:09.935Z,9.70
2022-11-18T13:48:41.300Z,9.55
2022-11-18T13:51:09.883Z,9.38
2022-11-18T13:53:38.904Z,9.63
2022-11-18T13:56:20.537Z,9.79
2022-11-18T13:59:16.473Z,9.94
2022-11-18T14:01:41.577Z,10.19
2022-11-18T14:04:36.224Z,10.00
2022-11-18T14:07:25.860Z,10.39
2022-11-18T14:09:56.843Z,10.21
2022-11-18T14:12:29.216Z,9.87
2022-11-18T14:15:33.480Z,9.99
2022-11-18T14:18:02.596Z,10.16
2022-11-18T14:20:31.565Z,9.95
2022-11-18T14:23:01.429Z,10.05
2022-11-18T14:25:34.937Z,9.83
2022-11-18T14:28:18.466Z,9.78
2022-11-18T14:31:04.853Z,10.03
2022-11-18T14:33:35.791Z,9.95
2022-11-18T14:36:15.788Z,10.09
2022-11-18T14:39:31.627Z,9.74
2022-11-18T14:41:47.423Z,9.69
2022-11-18T14:44:16.687Z,9.68
2022-11-18T14:46:48.195Z,9.93
2022-11-18T14:49:22.797Z,10.15
2022-11-18T14:51:52.292Z,10.12
2022-11-18T14:54:26.454Z,10.01
2022-11-18T14:56:58.451Z,10.20
2022-11-18T14:59:27.136Z,10.35
2022-11-18T15:01:56.784Z,10.47
2022-11-18T15:04:26.422Z,10.34
2022-11-18T15:06:54.921Z,9.97
2022-11-18T15:09:23.335Z,9.77
2022-11-18T15:11:51.636Z,9.26
2022-11-18T15:14:20.928Z,9.34
2022-11-18T15:16:49.915Z,9.63
2022-11-18T15:19:17.889Z,9.83
2022-11-18T15:21:46.397Z,9.28
2022-11-18T15:24:14.705Z,9.30
2022-11-18T15:26:45.113Z,9.11
2022-11-18T15:29:19.141Z,9.55
2022-11-18T15:31:48.129Z,9.77
2022-11-18T15:34:18.612Z,10.01
2022-11-18T15:36:47.115Z,10.17
2022-11-18T15:39:15.577Z,9.92
2022-11-18T15:41:44.923Z,9.47
2022-11-18T15:44:13.345Z,9.61
2022-11-18T15:46:41.727Z,9.37
2022-11-18T15:49:14.162Z,10.02
2022-11-18T15:51:42.345Z,9.76
2022-11-18T15:54:10.836Z,9.85
2022-11-18T15:56:40.112Z,10.20
2022-11-18T15:59:15.263Z,9.93
2022-11-18T16:01:46.308Z,9.54
2022-11-18T16:04:16.975Z,9.27
2022-11-18T16:06:45.876Z,9.30
2022-11-18T16:09:15.229Z,9.63
2022-11-18T16:12:02.026Z,9.85
2022-11-18T16:14:30.626Z,9.75
2022-11-18T16:16:58.995Z,9.53
2022-11-18T16:19:27.335Z,9.75
2022-11-18T16:21:57.374Z,9.81
2022-11-18T16:24:28.329Z,9.45
2022-11-18T16:26:57.302Z,9.65
2022-11-18T16:29:25.735Z,9.47
2022-11-18T16:31:54.961Z,9.38
2022-11-18T16:34:25.959Z,9.48
2022-11-18T16:36:56.717Z,9.90
2022-11-18T16:39:27.089Z,9.91
2022-11-18T16:42:02.054Z,9.60
2022-11-18T16:44:30.980Z,9.55
2022-11-18T16:46:59.141Z,10.00
2022-11-18T16:49:28.170Z,9.89
2022-11-18T16:51:57.386Z,9.80
2022-11-18T16:54:31.283Z,9.79
2022-11-18T16:56:59.987Z,9.82
2022-11-18T16:59:30.183Z,9.83
2022-11-18T17:02:00.211Z,10.02
2022-11-18T17:04:30.191Z,10.26
2022-11-18T17:07:01.255Z,10.12
2022-11-18T17:09:29.762Z,9.90
2022-11-18T17:12:01.275Z,10.03
2022-11-18T17:14:30.414Z,9.72
2022-11-18T17:17:01.436Z,9.43
2022-11-18T17:19:30.065Z,9.51
2022-11-18T17:21:58.176Z,10.07
2022-11-18T17:24:27.346Z,9.79
2022-11-18T17:26:55.826Z,9.57
2022-11-18T17:29:23.789Z,9.89
2022-11-18T17:31:51.928Z,9.89
2022-11-18T17:34:20.914Z,10.13
2022-11-18T17:36:49.301Z,9.92
2022-11-18T17:39:19.056Z,9.56
2022-11-18T17:42:06.577Z,10.09
2022-11-18T17:44:34.774Z,9.47
2022-11-18T17:47:03.293Z,9.85
2022-11-18T17:49:31.404Z,9.17
2022-11-18T17:51:59.633Z,9.54
2022-11-18T17:54:28.266Z,9.54
2022-11-18T17:56:56.736Z,8.90
2022-11-18T17:59:25.093Z,9.18
2022-11-18T18:01:58.947Z,9.57
2022-11-18T18:04:28.242Z,9.47
2022-11-18T18:06:56.479Z,9.20
2022-11-18T18:09:30.125Z,9.51
2022-11-18T18:12:00.785Z,9.34
2022-11-18T18:14:28.907Z,9.44
2022-11-18T18:16:57.068Z,9.70
2022-11-18T18:19:25.828Z,9.46
2022-11-18T18:21:53.989Z,9.50
2022-11-18T18:24:22.615Z,9.53
2022-11-18T18:26:51.452Z,9.40
2022-11-18T18:29:19.604Z,9.52
2022-11-18T18:31:47.659Z,9.70
2022-11-18T18:34:16.259Z,9.75
2022-11-18T18:36:44.687Z,9.64
2022-11-18T18:39:13.114Z,9.81
2022-11-18T18:41:41.486Z,9.90
2022-11-18T18:44:12.474Z,9.80
2022-11-18T18:46:45.280Z,9.76
2022-11-18T18:49:15.526Z,9.75
2022-11-18T18:51:45.613Z,9.51
2022-11-18T18:54:15.897Z,9.58
2022-11-18T18:56:44.096Z,9.38
2022-11-18T18:59:12.105Z,9.35
2022-11-18T19:01:40.614Z,9.62
2022-11-18T19:04:13.335Z,9.47
2022-11-18T19:07:00.547Z,9.32
2022-11-18T19:09:29.083Z,9.15
2022-11-18T19:12:16.014Z,9.38
2022-11-18T19:14:44.155Z,9.27
2022-11-18T19:17:13.153Z,9.66
2022-11-18T19:20:00.841Z,9.78
2022-11-18T19:22:31.546Z,9.54
2022-11-18T19:25:00.041Z,9.67
2022-11-18T19:27:28.953Z,9.53
2022-11-18T19:29:57.295Z,9.63
2022-11-18T19:32:25.545Z,9.75
2022-11-18T19:34:53.593Z,9.93
2022-11-18T19:37:21.993Z,9.37
2022-11-18T19:39:49.921Z,9.42
2022-11-18T19:42:17.893Z,9.51
2022-11-18T19:44:46.297Z,9.38
2022-11-18T19:47:14.274Z,9.39
2022-11-18T19:49:42.234Z,9.24
2022-11-18T19:52:10.536Z,9.12
2022-11-18T19:54:40.339Z,8.77
2022-11-18T19:57:08.418Z,8.76
2022-11-18T19:59:36.975Z,8.66
2022-11-18T20:02:04.957Z,8.69
2022-11-18T20:04:33.464Z,8.80
2022-11-18T20:07:01.483Z,9.06
2022-11-18T20:09:29.553Z,8.62
2022-11-18T20:11:58.066Z,8.30
2022-11-18T20:14:25.955Z,8.48
2022-11-18T20:16:54.194Z,8.63
2022-11-18T20:19:22.819Z,8.38
2022-11-18T20:21:51.082Z,8.14
2022-11-18T20:24:19.379Z,8.12
2022-11-18T20:26:48.874Z,8.05
2022-11-18T20:29:17.454Z,8.10
2022-11-18T20:31:45.790Z,8.42
2022-11-18T20:34:14.612Z,7.91
2022-11-18T20:36:43.157Z,8.13
2022-11-18T20:39:15.825Z,8.24
2022-11-18T20:42:04.916Z,7.65
2022-11-18T20:44:32.975Z,7.65
2022-11-18T20:47:01.303Z,7.72
2022-11-18T20:49:29.325Z,7.76
2022-11-18T20:51:57.333Z,7.75
2022-11-18T20:54:25.824Z,7.39
2022-11-18T20:56:53.892Z,7.74
2022-11-18T20:59:21.893Z,7.34
2022-11-18T21:01:50.092Z,7.81
2022-11-18T21:04:18.062Z,7.79
2022-11-18T21:06:46.006Z,7.45
2022-11-18T21:09:14.784Z,7.29
2022-11-18T21:11:42.705Z,6.96
2022-11-18T21:14:24.765Z,6.97
2022-11-18T21:16:55.736Z,7.21
2022-11-18T21:19:24.273Z,7.59
2022-11-18T21:21:52.943Z,7.30
2022-11-18T21:24:28.095Z,7.23
2022-11-18T21:26:57.035Z,7.45
2022-11-18T21:29:27.420Z,7.12
2022-11-18T21:31:56.125Z,7.15
2022-11-18T21:34:24.753Z,7.20
2022-11-18T21:36:55.141Z,7.09
2022-11-18T21:39:24.805Z,7.10
2022-11-18T21:41:56.577Z,6.81
2022-11-18T21:44:26.311Z,6.56
2022-11-18T21:46:54.695Z,6.09
2022-11-18T21:49:23.031Z,6.30
2022-11-18T21:51:51.145Z,5.97
2022-11-18T21:54:19.576Z,6.21
2022-11-18T21:56:47.612Z,6.15
2022-11-18T21:59:15.880Z,5.89
2022-11-18T22:01:44.355Z,5.82
2022-11-18T22:04:32.585Z,5.75
2022-11-18T22:07:00.561Z,5.45
2022-11-18T22:09:34.596Z,5.66
2022-11-18T22:12:06.487Z,5.64
2022-11-18T22:14:34.921Z,5.96
2022-11-18T22:17:03.501Z,5.76
2022-11-18T22:19:31.562Z,5.87
2022-11-18T22:22:00.198Z,5.81
2022-11-18T22:24:28.312Z,5.47
2022-11-18T22:26:56.377Z,5.78
2022-11-18T22:29:26.257Z,5.79
2022-11-18T22:31:54.451Z,5.49
2022-11-18T22:34:22.428Z,5.79
2022-11-18T22:36:50.774Z,5.31
2022-11-18T22:39:19.428Z,5.75
2022-11-18T22:42:06.276Z,5.78
2022-11-18T22:44:34.635Z,5.41
2022-11-18T22:47:02.565Z,5.57
2022-11-18T22:49:30.605Z,5.39
2022-11-18T22:51:58.924Z,5.58
2022-11-18T22:54:42.201Z,5.11
2022-11-18T22:57:10.533Z,5.21
2022-11-18T22:59:38.634Z,5.15
2022-11-18T23:02:06.822Z,5.39
2022-11-18T23:04:35.267Z,5.64
2022-11-18T23:07:03.310Z,5.64
2022-11-18T23:09:31.353Z,5.30
2022-11-18T23:12:18.518Z,5.15
2022-11-18T23:14:46.550Z,5.13
2022-11-18T23:17:16.198Z,5.28
2022-11-18T23:19:44.328Z,5.25
2022-11-18T23:22:12.631Z,5.14
2022-11-18T23:24:41.034Z,5.34
2022-11-18T23:27:09.460Z,4.82
2022-11-18T23:29:37.505Z,4.92
2022-11-18T23:32:05.936Z,4.87
2022-11-18T23:34:34.053Z,5.00
2022-11-18T23:37:02.094Z,5.23
2022-11-18T23:39:30.393Z,4.95
2022-11-18T23:41:58.398Z,4.87
2022-11-18T23:44:45.388Z,5.03
2022-11-18T23:47:14.057Z,4.78
2022-11-18T23:49:42.168Z,4.60
2022-11-18T23:52:10.965Z,4.66
2022-11-18T23:54:39.288Z,4.39
2022-11-18T23:57:07.537Z,4.85
2022-11-18T23:59:35.545Z,4.74
